createdAt,value
2022-08-25T00:01:55.055Z,3.50
2022-08-25T00:04:24.112Z,3.85
2022-08-25T00:06:53.588Z,3.58
2022-08-25T00:09:23.231Z,3.95
2022-08-25T00:11:51.438Z,3.78
2022-08-25T00:14:27.046Z,3.92
2022-08-25T00:16:56.209Z,3.67
2022-08-25T00:19:29.289Z,3.88
2022-08-25T00:21:56.888Z,4.10
2022-08-25T00:24:24.895Z,3.50
2022-08-25T00:26:55.195Z,3.75
2022-08-25T00:29:25.974Z,3.10
2022-08-25T00:31:55.051Z,3.47
2022-08-25T00:34:26.372Z,3.67
2022-08-25T00:36:55.051Z,3.22
2022-08-25T00:39:23.784Z,3.65
2022-08-25T00:41:56.651Z,4.32
2022-08-25T00:44:25.261Z,3.15
2022-08-25T00:46:55.842Z,3.30
2022-08-25T00:49:41.432Z,3.40
2022-08-25T00:52:13.132Z,3.50
2022-08-25T00:54:50.207Z,3.30
2022-08-25T00:57:22.099Z,3.83
2022-08-25T01:00:06.855Z,3.70
2022-08-25T01:02:34.072Z,3.58
2022-08-25T01:05:01.383Z,3.22
2022-08-25T01:07:28.542Z,4.10
2022-08-25T01:09:55.881Z,4.00
2022-08-25T01:12:23.189Z,2.90
2022-08-25T01:14:52.668Z,3.75
2022-08-25T01:17:21.904Z,4.00
2022-08-25T01:19:48.924Z,3.72
2022-08-25T01:22:16.796Z,3.58
2022-08-25T01:25:25.578Z,4.35
2022-08-25T01:27:53.840Z,3.20
2022-08-25T01:30:22.448Z,3.95
2022-08-25T01:32:50.419Z,3.97
2022-08-25T01:35:19.118Z,4.35
2022-08-25T01:37:46.504Z,4.10
2022-08-25T01:40:13.868Z,3.97
2022-08-25T01:43:27.057Z,4.50
2022-08-25T01:45:54.175Z,4.07
2022-08-25T01:48:21.212Z,5.07
2022-08-25T01:50:48.312Z,4.95
2022-08-25T01:53:30.250Z,4.13
2022-08-25T01:56:09.601Z,4.05
2022-08-25T01:58:38.938Z,4.22
2022-08-25T02:01:09.258Z,4.88
2022-08-25T02:03:42.405Z,4.38
2022-08-25T02:06:13.020Z,4.50
2022-08-25T02:08:40.799Z,4.07
2022-08-25T02:11:12.710Z,5.45
2022-08-25T02:13:41.278Z,4.50
2022-08-25T02:16:10.959Z,5.10
2022-08-25T02:18:38.164Z,4.50
2022-08-25T02:21:05.504Z,4.72
2022-08-25T02:23:32.721Z,5.38
2022-08-25T02:25:59.764Z,5.25
2022-08-25T02:28:27.041Z,4.78
2022-08-25T02:30:54.576Z,5.80
2022-08-25T02:33:28.376Z,5.32
2022-08-25T02:35:59.314Z,5.25
2022-08-25T02:38:28.208Z,4.43
2022-08-25T02:40:59.380Z,5.05
2022-08-25T02:43:28.725Z,4.72
2022-08-25T02:45:56.575Z,5.05
2022-08-25T02:48:24.686Z,4.72
2022-08-25T02:50:53.100Z,5.10
2022-08-25T02:53:20.911Z,5.93
2022-08-25T02:55:48.004Z,5.35
2022-08-25T02:58:15.831Z,4.95
2022-08-25T03:00:43.244Z,5.68
2022-08-25T03:03:11.985Z,5.20
2022-08-25T03:05:39.956Z,5.70
2022-08-25T03:08:08.139Z,5.78
2022-08-25T03:10:35.595Z,5.75
2022-08-25T03:13:08.564Z,5.38
2022-08-25T03:15:37.978Z,5.82
2022-08-25T03:18:06.540Z,5.85
2022-08-25T03:20:36.120Z,5.45
2022-08-25T03:23:05.433Z,5.13
2022-08-25T03:25:51.864Z,5.53
2022-08-25T03:28:19.319Z,5.45
2022-08-25T03:30:47.793Z,5.82
2022-08-25T03:33:23.280Z,6.00
2022-08-25T03:35:50.339Z,5.35
2022-08-25T03:38:17.590Z,5.78
2022-08-25T03:40:44.919Z,5.57
2022-08-25T03:43:11.886Z,6.18
2022-08-25T03:45:43.959Z,6.00
2022-08-25T03:48:11.612Z,6.40
2022-08-25T03:50:51.322Z,6.68
2022-08-25T03:53:20.397Z,6.78
2022-08-25T03:55:48.411Z,6.55
2022-08-25T03:58:15.508Z,6.45
2022-08-25T04:00:42.567Z,6.00
2022-08-25T04:03:09.863Z,6.78
2022-08-25T04:05:36.859Z,6.18
2022-08-25T04:08:04.744Z,6.78
2022-08-25T04:10:32.096Z,7.32
2022-08-25T04:12:59.983Z,7.43
2022-08-25T04:15:28.093Z,6.55
2022-08-25T04:17:59.154Z,7.03
2022-08-25T04:20:26.719Z,6.07
2022-08-25T04:22:53.797Z,6.70
2022-08-25T04:25:20.918Z,6.63
2022-08-25T04:27:48.163Z,6.63
2022-08-25T04:30:15.529Z,8.13
2022-08-25T04:32:42.592Z,6.40
2022-08-25T04:35:10.566Z,6.88
2022-08-25T04:37:37.514Z,7.53
2022-08-25T04:40:05.657Z,7.68
2022-08-25T04:42:32.609Z,7.35
2022-08-25T04:45:01.877Z,7.15
2022-08-25T04:47:28.906Z,6.55
2022-08-25T04:49:56.364Z,6.75
2022-08-25T04:52:23.526Z,6.80
2022-08-25T04:54:50.670Z,8.13
2022-08-25T04:57:17.979Z,6.70
2022-08-25T04:59:45.024Z,8.02
2022-08-25T05:02:12.046Z,6.90
2022-08-25T05:04:39.678Z,7.93
2022-08-25T05:07:06.784Z,7.60
2022-08-25T05:09:34.652Z,7.13
2022-08-25T05:12:03.075Z,7.75
2022-08-25T05:14:30.734Z,8.40
2022-08-25T05:16:58.183Z,9.55
2022-08-25T05:19:26.510Z,8.07
2022-08-25T05:21:54.080Z,8.57
2022-08-25T05:24:22.291Z,6.90
2022-08-25T05:26:50.127Z,8.57
2022-08-25T05:29:17.773Z,9.27
2022-08-25T05:31:50.031Z,8.43
2022-08-25T05:34:19.563Z,8.02
2022-08-25T05:36:48.635Z,6.90
2022-08-25T05:39:16.273Z,7.00
2022-08-25T05:41:43.372Z,8.25
2022-08-25T05:44:10.442Z,7.25
2022-08-25T05:46:38.598Z,7.72
2022-08-25T05:49:05.750Z,7.28
2022-08-25T05:51:33.290Z,8.20
2022-08-25T05:54:00.944Z,8.65
2022-08-25T05:56:28.193Z,7.65
2022-08-25T05:58:55.733Z,8.38
2022-08-25T06:01:46.852Z,8.30
2022-08-25T06:04:22.614Z,7.82
2022-08-25T06:06:53.443Z,8.43
2022-08-25T06:09:21.165Z,8.50
2022-08-25T06:11:54.049Z,8.35
2022-08-25T06:14:22.675Z,9.32
2022-08-25T06:16:51.692Z,8.30
2022-08-25T06:19:19.040Z,7.55
2022-08-25T06:21:46.170Z,7.88
2022-08-25T06:24:15.577Z,8.18
2022-08-25T06:26:44.443Z,8.75
2022-08-25T06:29:14.077Z,9.45
2022-08-25T06:31:42.643Z,9.60
2022-08-25T06:34:11.767Z,8.55
2022-08-25T06:36:40.043Z,8.38
2022-08-25T06:39:07.258Z,9.70
2022-08-25T06:41:37.341Z,8.82
2022-08-25T06:44:05.822Z,8.65
2022-08-25T06:46:36.448Z,8.48
2022-08-25T06:49:06.935Z,10.30
2022-08-25T06:51:36.233Z,8.25
2022-08-25T06:54:04.470Z,8.75
2022-08-25T06:56:31.785Z,9.60
2022-08-25T06:59:00.368Z,8.50
2022-08-25T07:01:27.642Z,9.95
2022-08-25T07:03:59.862Z,8.45
2022-08-25T07:06:28.419Z,8.95
2022-08-25T07:08:55.700Z,9.05
2022-08-25T07:11:22.802Z,8.93
2022-08-25T07:13:51.547Z,8.23
2022-08-25T07:16:20.611Z,8.50
2022-08-25T07:18:48.307Z,8.93
2022-08-25T07:21:15.892Z,8.00
2022-08-25T07:23:43.357Z,7.72
2022-08-25T07:29:16.773Z,7.75
2022-08-25T07:31:45.198Z,7.72
2022-08-25T07:34:31.590Z,7.15
2022-08-25T07:36:59.885Z,8.63
2022-08-25T07:39:29.089Z,8.35
2022-08-25T07:41:56.809Z,7.93
2022-08-25T07:44:25.346Z,7.05
2022-08-25T07:46:56.170Z,8.10
2022-08-25T07:49:25.929Z,8.35
2022-08-25T07:52:04.730Z,8.57
2022-08-25T07:54:35.611Z,7.85
2022-08-25T07:57:06.917Z,8.07
2022-08-25T07:59:39.283Z,8.63
2022-08-25T08:02:18.270Z,7.32
2022-08-25T08:04:49.600Z,8.55
2022-08-25T08:07:23.299Z,9.27
2022-08-25T08:10:00.421Z,7.45
2022-08-25T08:12:39.270Z,8.50
2022-08-25T08:15:10.184Z,8.02
2022-08-25T08:17:38.735Z,8.60
2022-08-25T08:20:09.056Z,8.38
2022-08-25T08:22:39.103Z,8.13
2022-08-25T08:25:10.535Z,8.68
2022-08-25T08:27:39.601Z,10.20
2022-08-25T08:30:07.374Z,8.55
2022-08-25T08:32:59.858Z,10.23
2022-08-25T08:35:21.503Z,8.93
2022-08-25T08:37:48.927Z,8.88
2022-08-25T08:40:21.919Z,9.75
2022-08-25T08:43:04.206Z,9.70
2022-08-25T08:45:44.003Z,8.98
2022-08-25T08:49:05.624Z,9.30
2022-08-25T08:51:39.284Z,9.65
2022-08-25T08:54:18.682Z,8.80
2022-08-25T08:56:50.390Z,8.88
2022-08-25T08:59:29.979Z,9.45
2022-08-25T09:02:04.082Z,8.55
2022-08-25T09:05:04.203Z,9.40
2022-08-25T09:07:42.275Z,7.85
2022-08-25T09:10:10.550Z,8.90
2022-08-25T09:12:47.493Z,8.98
2022-08-25T09:15:54.822Z,9.57
2022-08-25T09:19:21.259Z,8.48
2022-08-25T09:22:33.387Z,8.48
2022-08-25T09:25:10.405Z,7.65
2022-08-25T09:27:44.122Z,7.68
2022-08-25T09:30:17.240Z,9.80
2022-08-25T09:33:03.956Z,7.90
2022-08-25T09:35:35.200Z,9.20
2022-08-25T09:38:12.605Z,9.73
2022-08-25T09:40:45.312Z,8.80
2022-08-25T09:43:24.626Z,8.45
2022-08-25T09:46:04.071Z,7.88
2022-08-25T09:48:44.767Z,9.48
2022-08-25T09:51:25.781Z,8.93
2022-08-25T09:53:58.613Z,8.57
2022-08-25T09:56:33.614Z,8.13
2022-08-25T09:59:19.083Z,8.63
2022-08-25T10:01:56.225Z,8.25
2022-08-25T10:04:40.025Z,8.10
2022-08-25T10:07:29.319Z,8.75
2022-08-25T10:10:00.282Z,7.68
2022-08-25T10:12:42.989Z,7.82
2022-08-25T10:15:33.765Z,7.90
2022-08-25T10:18:25.900Z,7.35
2022-08-25T10:21:29.504Z,7.45
2022-08-25T10:23:56.611Z,7.75
2022-08-25T10:26:34.795Z,7.97
2022-08-25T10:29:17.761Z,7.75
2022-08-25T10:32:30.008Z,9.15
2022-08-25T10:35:03.182Z,8.20
2022-08-25T10:37:33.262Z,7.78
2022-08-25T10:40:38.981Z,9.52
2022-08-25T10:43:19.211Z,7.95
2022-08-25T10:46:00.514Z,8.45
2022-08-25T10:48:47.958Z,8.00
2022-08-25T10:51:46.911Z,7.60
2022-08-25T10:54:55.729Z,8.00
2022-08-25T10:57:41.382Z,7.78
2022-08-25T11:00:15.209Z,6.57
2022-08-25T11:03:01.499Z,8.25
2022-08-25T11:05:40.647Z,7.32
2022-08-25T11:08:16.577Z,7.53
2022-08-25T11:10:53.087Z,8.03
2022-08-25T11:13:37.850Z,7.93
2022-08-25T11:16:21.468Z,7.78
2022-08-25T11:18:56.149Z,6.55
2022-08-25T11:21:54.156Z,6.68
2022-08-25T11:24:30.281Z,6.82
2022-08-25T11:26:57.705Z,6.85
2022-08-25T11:29:31.309Z,7.10
2022-08-25T11:32:01.228Z,6.97
2022-08-25T11:34:32.757Z,5.97
2022-08-25T11:37:11.205Z,3.97
2022-08-25T11:40:18.868Z,4.47
2022-08-25T11:42:45.886Z,3.55
2022-08-25T11:45:34.725Z,3.80
2022-08-25T11:48:22.173Z,3.92
2022-08-25T11:51:27.542Z,3.33
2022-08-25T11:54:18.133Z,3.80
2022-08-25T11:56:57.562Z,3.42
2022-08-25T11:59:53.201Z,3.65
2022-08-25T12:02:42.706Z,2.75
2022-08-25T12:05:22.167Z,2.50
2022-08-25T12:08:20.202Z,2.72
2022-08-25T12:10:52.804Z,3.55
2022-08-25T12:13:40.801Z,3.28
2022-08-25T12:16:29.340Z,2.97
2022-08-25T12:19:28.616Z,2.80
2022-08-25T12:22:15.701Z,2.97
2022-08-25T12:24:47.208Z,2.83
2022-08-25T12:27:25.242Z,3.13
2022-08-25T12:30:05.693Z,2.85
2022-08-25T12:33:01.931Z,2.90
2022-08-25T12:35:53.510Z,2.90
2022-08-25T12:38:39.873Z,2.92
2022-08-25T12:41:19.280Z,3.60
2022-08-25T12:43:51.985Z,2.75
2022-08-25T12:46:23.041Z,2.83
2022-08-25T12:49:02.040Z,3.15
2022-08-25T12:51:48.704Z,3.45
2022-08-25T12:54:41.744Z,2.95
2022-08-25T12:57:29.931Z,2.95
2022-08-25T13:00:01.798Z,3.15
2022-08-25T13:03:06.677Z,3.13
2022-08-25T13:05:55.294Z,3.20
2022-08-25T13:08:51.628Z,3.30
2022-08-25T13:11:43.660Z,2.60
2022-08-25T13:14:27.035Z,2.88
2022-08-25T13:16:58.005Z,3.42
2022-08-25T13:19:27.440Z,2.90
2022-08-25T13:22:12.763Z,2.85
2022-08-25T13:24:47.495Z,3.70
2022-08-25T13:27:28.633Z,3.25
2022-08-25T13:29:59.232Z,3.53
2022-08-25T13:32:35.738Z,3.60
2022-08-25T13:35:19.777Z,2.78
2022-08-25T13:37:48.283Z,2.80
2022-08-25T13:40:31.288Z,3.38
2022-08-25T13:43:04.408Z,3.30
2022-08-25T13:45:41.206Z,3.13
2022-08-25T13:48:22.957Z,3.13
2022-08-25T13:51:00.554Z,2.72
2022-08-25T13:53:30.582Z,3.30
2022-08-25T13:56:00.922Z,3.17
2022-08-25T13:58:44.771Z,2.60
2022-08-25T14:01:46.315Z,3.20
2022-08-25T14:04:31.957Z,3.03
2022-08-25T14:07:34.133Z,2.80
2022-08-25T14:10:11.972Z,2.95
2022-08-25T14:12:47.156Z,3.00
2022-08-25T14:15:16.869Z,3.17
2022-08-25T14:18:00.855Z,3.58
2022-08-25T14:20:31.033Z,3.10
2022-08-25T14:23:12.933Z,3.45
2022-08-25T14:25:46.946Z,3.17
2022-08-25T14:28:19.730Z,3.03
2022-08-25T14:30:52.285Z,2.97
2022-08-25T14:33:23.888Z,2.83
2022-08-25T14:35:53.706Z,3.08
2022-08-25T14:38:22.378Z,2.83
2022-08-25T14:40:50.183Z,3.30
2022-08-25T14:43:17.555Z,3.10
2022-08-25T14:45:48.114Z,3.20
2022-08-25T14:48:28.425Z,3.08
2022-08-25T14:50:58.606Z,3.42
2022-08-25T14:53:29.657Z,3.08
2022-08-25T14:55:59.495Z,2.83
2022-08-25T14:58:34.112Z,3.50
2022-08-25T15:01:02.563Z,2.80
2022-08-25T15:03:38.502Z,3.40
2022-08-25T15:06:06.757Z,3.83
2022-08-25T15:08:52.141Z,3.22
2022-08-25T15:11:20.880Z,4.00
2022-08-25T15:13:49.802Z,3.55
2022-08-25T15:16:36.416Z,2.88
2022-08-25T15:19:07.115Z,2.67
2022-08-25T15:21:37.451Z,3.60
2022-08-25T15:24:09.435Z,3.22
2022-08-25T15:26:57.883Z,3.53
2022-08-25T15:29:28.050Z,3.08
2022-08-25T15:31:55.817Z,5.03
2022-08-25T15:34:22.801Z,4.38
2022-08-25T15:36:52.366Z,3.35
2022-08-25T15:39:21.734Z,2.88
2022-08-25T15:41:52.372Z,3.88
2022-08-25T15:44:19.980Z,4.00
2022-08-25T15:46:50.309Z,3.72
2022-08-25T15:49:23.227Z,3.40
2022-08-25T15:51:52.031Z,2.83
2022-08-25T15:54:20.393Z,3.42
2022-08-25T15:56:47.852Z,3.00
2022-08-25T15:59:15.471Z,3.05
2022-08-25T16:01:44.381Z,3.42
2022-08-25T16:04:14.489Z,3.65
2022-08-25T16:06:41.445Z,3.88
2022-08-25T16:09:08.590Z,4.10
2022-08-25T16:11:38.497Z,4.22
2022-08-25T16:14:06.491Z,4.05
2022-08-25T16:16:33.793Z,3.20
2022-08-25T16:19:01.778Z,3.50
2022-08-25T16:21:35.539Z,3.35
2022-08-25T16:24:07.486Z,3.45
2022-08-25T16:26:36.620Z,3.38
2022-08-25T16:29:06.398Z,3.25
2022-08-25T16:31:33.859Z,3.40
2022-08-25T16:34:01.622Z,3.88
2022-08-25T16:36:29.183Z,3.50
2022-08-25T16:38:57.730Z,3.58
2022-08-25T16:41:33.473Z,3.05
2022-08-25T16:44:02.069Z,3.97
2022-08-25T16:46:30.721Z,3.70
2022-08-25T16:49:02.449Z,3.53
2022-08-25T16:51:29.927Z,3.38
2022-08-25T16:54:21.963Z,3.40
2022-08-25T16:56:53.745Z,3.80
2022-08-25T16:59:23.411Z,3.65
2022-08-25T17:01:51.745Z,3.90
2022-08-25T17:04:19.851Z,3.30
2022-08-25T17:06:52.151Z,4.25
2022-08-25T17:09:23.949Z,4.38
2022-08-25T17:11:56.773Z,4.85
2022-08-25T17:14:24.010Z,4.55
2022-08-25T17:16:54.656Z,4.13
2022-08-25T17:19:23.671Z,3.67
2022-08-25T17:21:52.247Z,3.03
2022-08-25T17:24:19.234Z,3.60
2022-08-25T17:26:50.087Z,4.25
2022-08-25T17:29:17.843Z,3.95
2022-08-25T17:31:48.361Z,4.00
2022-08-25T17:34:16.758Z,3.38
2022-08-25T17:36:47.318Z,3.72
2022-08-25T17:39:14.965Z,4.15
2022-08-25T17:41:43.989Z,3.00
2022-08-25T17:44:12.054Z,3.83
2022-08-25T17:46:44.131Z,3.80
2022-08-25T17:49:15.625Z,4.28
2022-08-25T17:51:42.858Z,3.80
2022-08-25T17:54:10.155Z,4.10
2022-08-25T17:56:38.217Z,3.53
2022-08-25T17:59:06.060Z,4.40
2022-08-25T18:01:40.212Z,4.28
2022-08-25T18:04:15.632Z,4.53
2022-08-25T18:06:45.401Z,4.85
2022-08-25T18:09:12.853Z,5.30
2022-08-25T18:11:39.758Z,5.55
2022-08-25T18:14:06.658Z,5.53
2022-08-25T18:16:37.671Z,5.38
2022-08-25T18:19:04.730Z,4.45
2022-08-25T18:21:36.913Z,4.55
2022-08-25T18:24:04.522Z,5.38
2022-08-25T18:26:33.093Z,5.50
2022-08-25T18:29:01.355Z,6.03
2022-08-25T18:31:29.788Z,5.95
2022-08-25T18:33:58.519Z,6.50
2022-08-25T18:36:31.407Z,7.28
2022-08-25T18:39:16.978Z,8.82
2022-08-25T18:41:45.115Z,9.02
2022-08-25T18:44:12.256Z,8.35
2022-08-25T18:46:42.749Z,8.00
2022-08-25T18:49:10.865Z,9.18
2022-08-25T18:51:43.195Z,8.88
2022-08-25T18:54:23.386Z,7.75
2022-08-25T18:56:52.411Z,8.60
2022-08-25T18:59:20.149Z,8.65
2022-08-25T19:01:51.471Z,8.00
2022-08-25T19:04:18.498Z,7.82
2022-08-25T19:06:45.452Z,8.40
2022-08-25T19:09:15.890Z,9.10
2022-08-25T19:11:43.343Z,11.00
2022-08-25T19:14:12.691Z,10.98
2022-08-25T19:16:41.419Z,9.93
2022-08-25T19:19:13.638Z,10.30
2022-08-25T19:21:42.134Z,6.28
2022-08-25T19:24:10.612Z,6.78
2022-08-25T19:26:38.562Z,6.25
2022-08-25T19:29:11.187Z,6.30
2022-08-25T19:31:40.859Z,6.15
2022-08-25T19:34:10.180Z,5.95
2022-08-25T19:36:37.326Z,5.53
2022-08-25T19:39:08.659Z,5.00
2022-08-25T19:41:36.450Z,5.18
2022-08-25T19:44:05.141Z,4.38
2022-08-25T19:46:37.371Z,4.63
2022-08-25T19:49:12.027Z,4.43
2022-08-25T19:51:44.312Z,4.05
2022-08-25T19:54:16.306Z,4.55
2022-08-25T19:56:54.355Z,4.35
2022-08-25T19:59:36.727Z,5.90
2022-08-25T20:02:15.313Z,5.55
2022-08-25T20:04:49.994Z,5.50
2022-08-25T20:07:23.662Z,5.15
2022-08-25T20:09:52.595Z,5.20
2022-08-25T20:12:20.571Z,4.75
2022-08-25T20:14:48.738Z,4.93
2022-08-25T20:17:24.252Z,4.80
2022-08-25T20:19:58.632Z,4.75
2022-08-25T20:22:32.012Z,4.47
2022-08-25T20:25:13.079Z,5.28
2022-08-25T20:27:47.415Z,3.90
2022-08-25T20:30:24.072Z,4.28
2022-08-25T20:32:52.749Z,4.57
2022-08-25T20:35:21.464Z,3.95
2022-08-25T20:37:55.114Z,4.07
2022-08-25T20:40:25.553Z,4.03
2022-08-25T20:42:55.734Z,3.88
2022-08-25T20:45:23.465Z,4.43
2022-08-25T20:47:50.457Z,3.67
2022-08-25T20:50:24.172Z,3.90
2022-08-25T20:52:54.123Z,3.55
2022-08-25T20:55:22.242Z,3.90
2022-08-25T20:57:49.450Z,4.25
2022-08-25T21:00:19.389Z,3.53
2022-08-25T21:02:51.024Z,4.75
2022-08-25T21:05:18.550Z,3.90
2022-08-25T21:07:45.638Z,4.15
2022-08-25T21:10:14.072Z,3.90
2022-08-25T21:12:42.815Z,4.10
2022-08-25T21:15:11.441Z,4.68
2022-08-25T21:17:40.194Z,4.10
2022-08-25T21:20:08.801Z,3.90
2022-08-25T21:22:37.876Z,5.75
2022-08-25T21:25:05.768Z,4.43
2022-08-25T21:27:33.598Z,4.88
2022-08-25T21:30:00.732Z,4.47
2022-08-25T21:32:27.602Z,4.55
2022-08-25T21:34:56.262Z,4.63
2022-08-25T21:37:24.398Z,5.25
2022-08-25T21:39:52.117Z,4.78
2022-08-25T21:42:20.968Z,4.47
2022-08-25T21:44:49.458Z,4.25
2022-08-25T21:47:21.065Z,5.50
2022-08-25T21:49:48.715Z,4.78
2022-08-25T21:52:16.274Z,4.95
2022-08-25T21:54:44.821Z,5.03
2022-08-25T21:57:17.632Z,5.22
2022-08-25T21:59:46.199Z,4.85
2022-08-25T22:02:14.029Z,4.72
2022-08-25T22:04:43.554Z,5.57
2022-08-25T22:07:11.116Z,5.80
2022-08-25T22:09:41.166Z,6.28
2022-08-25T22:12:08.829Z,5.13
2022-08-25T22:14:39.132Z,5.15
2022-08-25T22:17:10.023Z,5.15
2022-08-25T22:19:40.968Z,5.00
2022-08-25T22:22:07.907Z,5.25
2022-08-25T22:24:37.409Z,4.20
2022-08-25T22:27:15.440Z,4.82
2022-08-25T22:29:44.120Z,5.38
2022-08-25T22:32:13.643Z,5.30
2022-08-25T22:34:41.083Z,4.60
2022-08-25T22:37:10.939Z,4.45
2022-08-25T22:39:40.355Z,4.80
2022-08-25T22:42:08.807Z,5.13
2022-08-25T22:44:43.745Z,5.20
2022-08-25T22:47:11.845Z,4.72
2022-08-25T22:49:40.203Z,5.25
2022-08-25T22:52:09.442Z,5.18
2022-08-25T22:54:41.093Z,4.47
2022-08-25T22:57:07.994Z,4.88
2022-08-25T22:59:34.957Z,4.82
2022-08-25T23:02:02.259Z,4.68
2022-08-25T23:04:29.213Z,5.05
2022-08-25T23:06:56.293Z,5.18
2022-08-25T23:09:24.863Z,5.18
2022-08-25T23:11:52.401Z,5.22
2022-08-25T23:14:20.357Z,4.78
2022-08-25T23:16:50.019Z,4.85
2022-08-25T23:19:18.094Z,5.43
2022-08-25T23:22:04.478Z,4.57
2022-08-25T23:24:31.979Z,4.00
2022-08-25T23:27:00.924Z,5.18
2022-08-25T23:29:29.608Z,5.88
2022-08-25T23:31:56.994Z,5.03
2022-08-25T23:34:24.896Z,4.65
2022-08-25T23:36:52.386Z,4.45
2022-08-25T23:39:21.623Z,4.60
2022-08-25T23:41:49.653Z,5.10
2022-08-25T23:44:18.597Z,4.50
2022-08-25T23:46:49.652Z,4.57
2022-08-25T23:49:18.961Z,5.13
2022-08-25T23:51:52.642Z,5.13
2022-08-25T23:54:31.155Z,5.57
2022-08-25T23:57:01.656Z,5.32
2022-08-25T23:59:29.075Z,5.85
